Time;durP1;ratioP1;P1;durP2;ratioP2;P2;SDS_P1;SDS_P2;PMS_P1;PMS_P2;Temp;Humidity;BMP_temperature;BMP_pressure;BME280_temperature;BME280_humidity;BME280_pressure;Samples;Min_cycle;Max_cycle;Signal;HPM_P1;HPM_P2
2023/07/24 07:01:22;;;;;;;1.20;1.20;;;18.70;99.90;21.40;100120.00;;;;6255184;22;1361647;-66
2023/07/24 07:03:48;;;;;;;1.27;1.27;;;19.00;99.90;20.70;100116.00;;;;6282064;22;20179;-66
2023/07/24 07:06:14;;;;;;;0.93;0.93;;;18.80;99.90;20.00;100139.00;;;;6282105;22;20144;-66
2023/07/24 07:08:54;;;;;;;0.95;0.95;;;18.40;99.90;20.10;100137.00;;;;6256695;22;20618;-66
2023/07/24 07:12:18;;;;;;;0.87;0.87;;;18.30;99.90;19.80;100146.00;;;;6283081;22;20230;-66
2023/07/24 07:14:44;;;;;;;1.00;1.00;;;18.10;99.90;19.60;100136.00;;;;6282264;22;20587;-66
2023/07/24 07:17:12;;;;;;;1.33;1.33;;;18.00;99.90;19.80;100145.00;;;;6281918;22;20268;-67
2023/07/24 07:19:58;;;;;;;1.00;1.00;;;18.00;99.90;20.00;100151.00;;;;6308990;22;20515;-67
2023/07/24 07:22:27;;;;;;;1.52;1.52;;;18.10;99.90;20.20;100147.00;;;;6281486;22;20183;-68
2023/07/24 07:24:55;;;;;;;1.20;1.20;;;18.00;99.90;20.20;100137.00;;;;6256084;22;20189;-67
2023/07/24 07:27:54;;;;;;;1.20;1.20;;;18.00;99.90;20.20;100134.00;;;;6308441;22;20140;-67
2023/07/24 07:30:27;;;;;;;2.20;2.00;;;18.00;99.90;20.50;100132.00;;;;6282280;22;20162;-67
2023/07/24 07:32:58;;;;;;;1.40;1.40;;;18.20;99.90;20.40;100135.00;;;;6309550;22;20524;-67
2023/07/24 07:35:35;;;;;;;1.60;1.50;;;18.20;99.90;20.90;100123.00;;;;6308168;22;20146;-67
2023/07/24 07:38:06;;;;;;;1.30;1.30;;;18.40;99.90;20.80;100124.00;;;;6309184;22;20142;-67
2023/07/24 07:41:06;;;;;;;1.70;1.70;;;18.40;99.90;21.90;100115.00;;;;6282077;22;20150;-68
2023/07/24 07:43:41;;;;;;;1.40;1.40;;;18.80;99.90;20.80;100111.00;;;;6256733;22;20190;-67
2023/07/24 07:46:12;;;;;;;1.50;1.47;;;18.60;99.90;20.50;100114.00;;;;6281482;22;20158;-67
2023/07/24 07:52:41;;;;;;;2.17;2.10;;;18.90;99.90;20.90;100106.00;;;;6309047;22;20163;-67
2023/07/24 07:55:18;;;;;;;1.50;1.50;;;19.10;99.90;20.10;100115.00;;;;6256582;22;20169;-67
2023/07/24 07:57:44;;;;;;;1.10;1.10;;;18.50;99.90;19.80;100131.00;;;;6281216;22;20276;-67
2023/07/24 08:00:33;;;;;;;1.30;1.30;;;18.10;99.90;21.30;100105.00;;;;6268493;22;20607;-67
2023/07/24 08:02:58;;;;;;;1.30;1.30;;;18.70;99.90;20.60;100109.00;;;;6225379;22;20180;-67
2023/07/24 08:05:31;;;;;;;1.20;1.20;;;18.50;99.90;21.30;100109.00;;;;6250493;22;20485;-67
2023/07/24 08:08:08;;;;;;;1.80;1.70;;;18.60;99.90;20.70;100099.00;;;;6250498;22;20208;-67
2023/07/24 08:10:40;;;;;;;1.38;1.38;;;18.80;99.90;20.40;100106.00;;;;6251151;22;20145;-66
2023/07/24 08:13:07;;;;;;;2.90;2.80;;;18.60;99.90;20.20;100110.00;;;;6277332;22;20584;-66
2023/07/24 08:15:47;;;;;;;1.57;1.47;;;18.40;99.90;20.40;100107.00;;;;6277011;22;20148;-66
2023/07/24 08:18:24;;;;;;;1.30;1.30;;;18.50;99.90;20.30;100105.00;;;;6249600;22;20158;-66
2023/07/24 08:20:52;;;;;;;1.20;1.20;;;18.40;99.90;20.70;100098.00;;;;6225501;22;20158;-66
2023/07/24 08:23:26;;;;;;;0.90;0.90;;;18.60;99.90;19.80;100113.00;;;;6276984;22;20174;-66
2023/07/24 08:26:02;;;;;;;0.87;0.87;;;18.30;99.90;20.00;100119.00;;;;6250617;22;20236;-66
2023/07/24 08:28:36;;;;;;;1.83;1.73;;;18.30;99.90;19.80;100093.00;;;;6251123;22;20140;-66
2023/07/24 08:31:11;;;;;;;0.90;0.90;;;18.30;99.90;19.60;100123.00;;;;6250980;22;20162;-66
2023/07/24 08:33:42;;;;;;;1.77;1.17;;;18.10;99.90;19.90;100123.00;;;;6250671;22;20164;-66
2023/07/24 08:36:13;;;;;;;1.97;1.87;;;18.10;99.90;19.10;100119.00;;;;6250912;22;20148;-66
2023/07/24 08:38:40;;;;;;;1.90;1.80;;;17.90;99.90;20.00;100118.00;;;;6250582;22;20148;-65
2023/07/24 08:41:13;;;;;;;6.97;2.63;;;18.30;99.90;19.70;100115.00;;;;6250343;22;20230;-67
2023/07/24 08:43:41;;;;;;;1.07;1.07;;;18.20;99.90;19.80;100096.00;;;;6250633;22;20179;-68
2023/07/24 08:46:12;;;;;;;2.87;2.33;;;18.20;99.90;20.60;100088.00;;;;6250153;22;20159;-67
2023/07/24 08:48:47;;;;;;;1.73;1.63;;;18.40;99.90;19.90;100069.00;;;;6277738;22;20156;-67
2023/07/24 08:51:24;;;;;;;0.93;0.93;;;18.30;99.90;21.10;100063.00;;;;6249588;22;20143;-68
2023/07/24 08:53:51;;;;;;;1.23;1.23;;;18.60;99.90;22.70;100054.00;;;;6250201;22;20298;-69
2023/07/24 08:56:31;;;;;;;2.15;2.00;;;19.60;99.90;22.90;100041.00;;;;6249717;22;20137;-69
2023/07/24 08:59:08;;;;;;;0.55;0.55;;;20.80;99.90;21.70;100024.00;;;;6250553;22;20145;-69
2023/07/24 09:01:48;;;;;;;0.50;0.50;;;20.40;99.90;24.10;100026.00;;;;6280369;22;20599;-69
2023/07/24 09:04:24;;;;;;;0.55;0.55;;;21.50;99.90;22.70;100008.00;;;;6255061;22;20152;-69
2023/07/24 09:07:02;;;;;;;0.73;0.60;;;21.30;99.90;22.60;100011.00;;;;6280626;22;20592;-69
2023/07/24 09:09:36;;;;;;;1.23;1.05;;;20.90;99.90;22.20;100016.00;;;;6280696;22;20202;-69
2023/07/24 09:12:18;;;;;;;0.75;0.75;;;20.60;99.90;21.20;100031.00;;;;6307732;22;20147;-68
2023/07/24 09:15:09;;;;;;;0.30;0.30;;;20.20;99.90;22.10;100027.00;;;;6308216;22;20141;-68
2023/07/24 09:17:53;;;;;;;3.22;2.47;;;20.20;99.90;22.10;100021.00;;;;6280213;22;20156;-69
2023/07/24 09:20:38;;;;;;;0.57;0.57;;;20.40;99.90;22.10;99988.00;;;;6280702;22;20148;-69
2023/07/24 09:23:10;;;;;;;0.20;0.20;;;20.30;99.90;21.70;100024.00;;;;6280570;22;20270;-69
2023/07/24 09:25:43;;;;;;;0.52;0.52;;;20.20;99.90;23.30;100023.00;;;;6307751;22;20580;-69
2023/07/24 09:28:17;;;;;;;5.63;2.63;;;20.60;99.90;23.20;100026.00;;;;6279776;22;20156;-68
2023/07/24 09:31:09;;;;;;;0.30;0.30;;;20.90;99.90;23.30;100025.00;;;;6280496;22;20194;-68
2023/07/24 09:33:43;;;;;;;0.30;0.30;;;21.20;99.90;23.00;100022.00;;;;6280483;22;20588;-69
2023/07/24 09:36:15;;;;;;;0.32;0.32;;;21.10;99.90;24.10;100036.00;;;;6280396;22;20159;-69
2023/07/24 09:38:46;;;;;;;0.40;0.40;;;21.40;99.90;22.50;100024.00;;;;6280682;22;20198;-68
2023/07/24 09:41:27;;;;;;;0.30;0.30;;;21.00;99.90;24.10;99993.00;;;;6280158;22;20156;-68
2023/07/24 09:44:07;;;;;;;0.20;0.20;;;21.30;99.90;25.30;100031.00;;;;6279908;22;20542;-69
2023/07/24 09:46:33;;;;;;;0.15;0.15;;;22.30;99.90;24.80;100029.00;;;;6280389;22;20142;-68
2023/07/24 09:49:05;;;;;;;1.83;1.20;;;22.40;99.90;26.20;100054.00;;;;6280003;22;20628;-68
2023/07/24 09:51:36;;;;;;;3.33;1.27;;;23.60;99.90;24.20;100037.00;;;;6280461;22;20243;-66
2023/07/24 09:54:26;;;;;;;0.98;0.95;;;22.90;99.90;25.20;100045.00;;;;6255188;22;20579;-66
2023/07/24 09:57:02;;;;;;;0.47;0.25;;;22.70;99.90;22.90;100044.00;;;;6280011;22;20144;-66
2023/07/24 09:59:30;;;;;;;1.33;0.85;;;22.10;99.90;22.90;100045.00;;;;6279195;22;20201;-66
2023/07/24 10:01:56;;;;;;;0.10;0.10;;;21.50;99.90;22.70;100043.00;;;;6280251;22;20180;-66
2023/07/24 10:04:24;;;;;;;0.55;0.40;;;21.30;99.90;23.50;100037.00;;;;6278771;22;20236;-66
2023/07/24 10:07:01;;;;;;;0.90;0.90;;;21.40;99.90;23.40;100057.00;;;;6307652;22;20136;-66
2023/07/24 10:09:27;;;;;;;0.30;0.30;;;21.60;99.90;23.90;100061.00;;;;6279441;22;20163;-66
2023/07/24 10:12:02;;;;;;;0.10;0.10;;;21.80;99.90;25.00;100064.00;;;;6280247;22;20151;-66
2023/07/24 10:14:31;;;;;;;0.57;0.57;;;22.10;99.90;24.20;100070.00;;;;6279458;22;20537;-66
2023/07/24 10:16:57;;;;;;;0.10;0.10;;;22.00;99.90;24.00;100066.00;;;;6279194;22;20642;-66
2023/07/24 10:19:44;;;;;;;0.50;0.50;;;21.90;99.90;22.70;100046.00;;;;6280019;22;20148;-66
2023/07/24 10:33:48;;;;;;;2.55;0.98;;;21.00;99.90;22.50;100069.00;;;;5070608;28;20548;-65
2023/07/24 10:36:26;;;;;;;0.93;0.80;;;21.10;99.90;23.20;100043.00;;;;5037589;28;20194;-65
2023/07/24 10:39:13;;;;;;;0.85;0.77;;;21.20;99.90;22.60;100070.00;;;;5049043;28;20204;-65
2023/07/24 10:41:47;;;;;;;0.90;0.57;;;21.00;99.90;22.80;100078.00;;;;5049117;28;20244;-65
2023/07/24 10:44:15;;;;;;;0.47;0.47;;;20.90;99.90;22.20;100085.00;;;;5048281;28;20538;-65
2023/07/24 10:46:46;;;;;;;0.30;0.30;;;20.80;99.90;21.80;100082.00;;;;5050067;28;20216;-65
2023/07/24 10:49:24;;;;;;;1.30;1.20;;;20.50;99.90;22.30;100090.00;;;;5048304;28;20186;-65
2023/07/24 10:51:59;;;;;;;1.00;1.00;;;20.60;99.90;22.80;100084.00;;;;5043638;28;21157;-66
2023/07/24 10:54:32;;;;;;;2.10;1.40;;;20.80;99.90;23.40;100089.00;;;;5025190;28;20185;-67
2023/07/24 10:57:00;;;;;;;0.77;0.77;;;21.30;99.90;24.10;100108.00;;;;5042286;28;20592;-67
2023/07/24 10:59:38;;;;;;;1.58;1.48;;;21.90;99.90;24.80;100118.00;;;;5048703;28;20190;-68
2023/07/24 11:02:08;;;;;;;1.48;1.27;;;22.40;99.90;23.80;100100.00;;;;5049787;28;20664;-64
2023/07/24 11:04:42;;;;;;;4.88;3.05;;;22.20;99.90;25.10;100124.00;;;;5048833;28;20182;-67
2023/07/24 11:07:14;;;;;;;0.52;0.52;;;22.70;99.90;24.00;100104.00;;;;5049252;28;20201;-67
2023/07/24 11:09:48;;;;;;;0.17;0.17;;;22.20;99.90;25.80;100121.00;;;;5048335;28;20216;-67
2023/07/24 11:12:16;;;;;;;3.20;2.28;;;22.90;99.90;24.40;100107.00;;;;5049477;28;20636;-67
2023/07/24 11:14:54;;;;;;;1.33;1.23;;;22.90;99.90;24.20;100100.00;;;;5048789;28;20521;-67
2023/07/24 11:18:02;;;;;;;0.52;0.32;;;22.60;99.90;24.60;100103.00;;;;5048623;28;20539;-67
2023/07/24 11:20:56;;;;;;;1.42;1.10;;;23.10;99.90;24.10;100108.00;;;;5041642;28;20179;-67
2023/07/24 11:23:54;;;;;;;0.10;0.10;;;22.70;99.90;26.50;100120.00;;;;5076653;28;20236;-67
2023/07/24 11:26:26;;;;;;;2.05;1.30;;;23.60;99.90;24.80;100118.00;;;;5040138;28;20210;-67
2023/07/24 11:29:11;;;;;;;0.30;0.30;;;23.40;99.90;27.10;100131.00;;;;5048019;28;20222;-67
2023/07/24 11:31:45;;;;;;;4.80;1.45;;;24.30;99.90;29.50;100150.00;;;;5048392;28;20226;-68
2023/07/24 11:34:26;;;;;;;0.52;0.52;;;26.10;99.90;31.10;100206.00;;;;5048114;28;20577;-67
2023/07/24 11:37:01;;;;;;;5.60;1.23;;;27.30;99.90;26.60;100258.00;;;;5048178;28;20265;-67
2023/07/24 11:39:38;;;;;;;0.63;0.63;;;25.70;99.90;25.90;100218.00;;;;5048417;28;20268;-67
2023/07/24 11:42:12;;;;;;;0.52;0.52;;;24.20;99.90;25.40;100177.00;;;;5048916;28;20182;-67
2023/07/24 11:44:38;;;;;;;2.65;2.13;;;23.20;99.90;25.20;100160.00;;;;5035428;28;20193;-67
2023/07/24 11:47:05;;;;;;;0.65;0.65;;;23.20;99.90;25.10;100160.00;;;;5034940;28;20278;-67
2023/07/24 11:49:32;;;;;;;0.98;0.57;;;23.30;99.90;24.90;100163.00;;;;5035338;28;20179;-67
2023/07/24 11:52:10;;;;;;;4.18;1.17;;;23.50;99.90;24.80;100149.00;;;;5035820;28;20214;-67
2023/07/24 11:55:03;;;;;;;0.82;0.82;;;23.20;99.90;25.10;100152.00;;;;5037898;28;20175;-67
2023/07/24 11:57:29;;;;;;;0.55;0.55;;;23.40;99.90;26.80;100169.00;;;;5034466;28;20539;-67
2023/07/24 12:00:08;;;;;;;1.00;1.00;;;23.90;99.90;25.40;100167.00;;;;5032878;28;20660;-67
2023/07/24 12:02:50;;;;;;;0.93;0.75;;;23.40;99.90;23.80;100150.00;;;;5034091;28;20226;-67
2023/07/24 12:05:24;;;;;;;1.40;1.30;;;22.70;99.90;23.60;100117.00;;;;5030109;28;20190;-67
2023/07/24 12:07:59;;;;;;;0.30;0.30;;;21.90;99.90;23.00;100123.00;;;;5034166;28;20663;-67
2023/07/24 12:10:36;;;;;;;0.75;0.75;;;21.50;99.90;23.70;100113.00;;;;5035260;28;20178;-67
2023/07/24 12:13:14;;;;;;;0.63;0.63;;;21.50;99.90;23.10;100135.00;;;;5034014;28;20205;-67
2023/07/24 12:15:43;;;;;;;3.35;1.38;;;21.50;99.90;22.50;100145.00;;;;5034063;28;20194;-67
2023/07/24 12:18:50;;;;;;;2.83;1.80;;;21.20;99.90;23.60;100156.00;;;;5033990;28;20197;-67
2023/07/24 12:21:22;;;;;;;2.47;1.25;;;21.30;99.90;22.70;100145.00;;;;5033262;28;20190;-67
2023/07/24 12:23:50;;;;;;;1.95;1.77;;;21.20;99.90;22.70;100154.00;;;;5029444;28;20202;-67
2023/07/24 12:26:25;;;;;;;1.02;0.93;;;21.20;99.90;22.90;100154.00;;;;5031947;28;20174;-67
2023/07/24 12:28:51;;;;;;;0.20;0.20;;;21.30;99.90;25.00;100167.00;;;;5033373;28;20663;-67
2023/07/24 12:31:17;;;;;;;1.60;1.50;;;22.00;99.90;24.00;100155.00;;;;5033236;28;20193;-67
2023/07/24 12:33:42;;;;;;;0.98;0.82;;;22.10;99.90;24.40;100135.00;;;;5040158;28;20275;-67
2023/07/24 12:36:11;;;;;;;1.40;1.30;;;22.30;99.90;23.40;100149.00;;;;5034335;28;20186;-67
2023/07/24 12:38:47;;;;;;;0.10;0.10;;;21.70;99.90;24.50;100159.00;;;;5033937;28;20285;-67
2023/07/24 12:41:21;;;;;;;0.93;0.85;;;21.80;99.90;22.60;100147.00;;;;5033496;28;20680;-67
2023/07/24 12:43:56;;;;;;;1.10;0.50;;;21.30;99.90;23.60;100149.00;;;;5034966;28;20240;-67
2023/07/24 12:46:52;;;;;;;1.00;1.00;;;21.30;99.90;25.20;100166.00;;;;5033268;28;20186;-67
2023/07/24 12:49:40;;;;;;;2.05;1.85;;;22.10;99.90;24.30;100156.00;;;;5027091;28;20289;-67
2023/07/24 12:52:31;;;;;;;2.28;2.13;;;22.40;99.90;22.60;100142.00;;;;5030157;28;20243;-67
2023/07/24 12:55:11;;;;;;;1.80;0.93;;;21.50;99.90;21.90;100139.00;;;;5028829;28;20218;-66
2023/07/24 12:57:37;;;;;;;1.02;1.02;;;20.70;99.90;21.20;100147.00;;;;5033133;28;20660;-67
2023/07/24 13:00:31;;;;;;;0.50;0.50;;;20.00;99.90;20.90;100129.00;;;;5030130;28;20252;-67
2023/07/24 13:03:08;;;;;;;0.70;0.60;;;19.70;99.90;20.00;100135.00;;;;5010417;28;20867;-67
2023/07/24 13:05:50;;;;;;;2.63;1.75;;;18.80;99.90;19.60;100145.00;;;;5034119;28;20186;-67
2023/07/24 13:08:32;;;;;;;2.30;0.73;;;18.50;99.90;20.50;100138.00;;;;5028479;28;20676;-67
2023/07/24 13:11:15;;;;;;;1.10;1.10;;;18.60;99.90;21.50;100112.00;;;;5034869;28;20274;-67
2023/07/24 13:13:58;;;;;;;0.68;0.68;;;18.90;99.90;20.90;100129.00;;;;5032816;28;20657;-67
2023/07/24 13:16:27;;;;;;;3.03;2.83;;;18.80;99.90;19.90;100147.00;;;;5026085;28;20697;-67
2023/07/24 13:19:00;;;;;;;2.07;1.87;;;18.40;99.90;19.80;100158.00;;;;5032839;28;20187;-67
2023/07/24 13:21:43;;;;;;;2.27;1.47;;;18.20;99.90;19.50;100159.00;;;;5033183;28;20224;-68
2023/07/24 13:24:17;;;;;;;1.07;1.07;;;18.10;99.90;19.70;100163.00;;;;5032859;28;20266;-67
2023/07/24 13:26:51;;;;;;;3.27;2.87;;;18.00;99.90;19.90;100162.00;;;;5032301;28;20744;-68
2023/07/24 13:29:28;;;;;;;0.47;0.47;;;18.10;99.90;19.90;100154.00;;;;5032423;28;20559;-68
2023/07/24 13:32:01;;;;;;;0.10;0.10;;;18.00;99.90;20.80;100142.00;;;;5030490;28;20213;-68
2023/07/24 13:34:47;;;;;;;2.63;1.60;;;18.30;99.90;21.30;100134.00;;;;5032640;28;20192;-67
2023/07/24 13:37:42;;;;;;;1.48;1.38;;;18.70;99.90;20.50;100123.00;;;;5023624;28;20221;-68
2023/07/24 13:40:16;;;;;;;0.37;0.37;;;18.60;99.90;20.70;100142.00;;;;5032164;28;20641;-67
2023/07/24 13:42:47;;;;;;;1.60;1.07;;;18.70;99.90;20.90;100144.00;;;;5032233;28;20197;-68
2023/07/24 13:45:28;;;;;;;3.70;1.98;;;18.80;99.90;20.70;100140.00;;;;5033175;28;20239;-68
2023/07/24 13:48:03;;;;;;;6.00;4.77;;;18.70;99.90;19.90;100156.00;;;;5033404;28;20186;-68
2023/07/24 13:50:35;;;;;;;3.07;2.87;;;18.50;99.90;19.30;100168.00;;;;5031707;28;20534;-68
2023/07/24 13:53:09;;;;;;;5.27;4.73;;;18.00;99.90;19.30;100157.00;;;;5031863;28;20205;-68
2023/07/24 13:55:43;;;;;;;0.93;0.93;;;17.80;99.90;20.00;100171.00;;;;5015805;28;20222;-68
2023/07/24 13:58:16;;;;;;;2.87;2.67;;;17.80;99.90;19.50;100169.00;;;;5037699;28;20529;-68
2023/07/24 14:00:48;;;;;;;7.87;6.13;;;17.70;99.90;19.30;100166.00;;;;5028315;28;20652;-68
2023/07/24 14:03:19;;;;;;;4.40;4.10;;;17.70;99.90;19.80;100133.00;;;;5064155;28;20189;-68
2023/07/24 14:05:50;;;;;;;4.20;3.57;;;17.80;99.90;18.80;100176.00;;;;5013815;28;20195;-68
2023/07/24 14:08:27;;;;;;;4.83;3.20;;;17.50;99.90;18.60;100166.00;;;;5031788;28;20216;-68
2023/07/24 14:11:01;;;;;;;2.37;1.97;;;17.30;99.90;18.80;100166.00;;;;5032221;28;20191;-68
2023/07/24 14:13:36;;;;;;;1.43;1.17;;;17.30;99.90;19.70;100165.00;;;;5031807;28;20223;-68
2023/07/24 14:16:10;;;;;;;2.80;2.57;;;17.60;99.90;20.00;100152.00;;;;5014657;28;20230;-68
2023/07/24 14:18:38;;;;;;;10.73;1.43;;;17.80;99.90;19.90;100151.00;;;;5031848;28;20181;-67
2023/07/24 14:21:12;;;;;;;1.10;1.00;;;17.90;99.90;19.50;100150.00;;;;5032555;28;20639;-67
2023/07/24 14:23:47;;;;;;;0.80;0.80;;;18.00;99.90;20.00;100152.00;;;;5015774;28;20598;-68
2023/07/24 14:26:15;;;;;;;1.30;1.20;;;18.20;99.90;20.20;100157.00;;;;5030904;28;20185;-68
2023/07/24 14:28:47;;;;;;;0.53;0.53;;;18.30;99.90;20.20;100147.00;;;;5031853;28;20188;-67
2023/07/24 14:31:18;;;;;;;1.10;1.03;;;18.50;99.90;20.00;100134.00;;;;5032443;28;20648;-68
2023/07/24 14:33:49;;;;;;;3.30;3.10;;;18.50;99.90;20.90;100136.00;;;;5031743;28;20197;-67
2023/07/24 14:36:33;;;;;;;1.43;1.33;;;18.80;99.90;20.30;100129.00;;;;5021513;28;20212;-67
2023/07/24 14:39:05;;;;;;;1.42;1.33;;;18.80;99.90;20.20;100137.00;;;;5015816;28;20557;-68
2023/07/24 14:41:36;;;;;;;1.05;1.05;;;18.90;99.90;21.70;100134.00;;;;5032083;28;20198;-67
2023/07/24 14:44:02;;;;;;;1.42;1.33;;;19.20;99.90;21.00;100128.00;;;;5031682;28;20186;-67
2023/07/24 14:46:36;;;;;;;0.85;0.85;;;19.40;99.90;20.90;100134.00;;;;5039443;28;20189;-67
2023/07/24 14:49:15;;;;;;;1.73;1.10;;;19.30;99.90;21.10;100134.00;;;;5032179;28;20229;-68
2023/07/24 14:51:47;;;;;;;1.25;1.17;;;19.40;99.90;21.70;100132.00;;;;5033776;28;20233;-68
2023/07/24 14:54:23;;;;;;;2.63;2.00;;;19.70;99.90;21.10;100132.00;;;;5030256;28;20183;-68
2023/07/24 14:56:50;;;;;;;0.63;0.63;;;19.60;99.90;21.90;100139.00;;;;5029271;28;20194;-68
2023/07/24 14:59:21;;;;;;;1.00;1.00;;;19.90;99.90;22.20;100143.00;;;;5031769;28;20194;-68
2023/07/24 15:01:58;;;;;;;0.13;0.13;;;20.10;99.90;22.90;100161.00;;;;5013096;28;20195;-68
2023/07/24 15:04:32;;;;;;;0.20;0.20;;;20.40;99.90;23.10;100159.00;;;;5031272;28;20186;-68
2023/07/24 15:07:06;;;;;;;0.35;0.35;;;20.50;99.90;22.70;100171.00;;;;5030923;28;20665;-68
2023/07/24 15:09:44;;;;;;;0.32;0.32;;;20.30;99.90;22.90;100149.00;;;;5028630;28;20577;-68
2023/07/24 15:12:18;;;;;;;3.13;0.85;;;20.30;99.90;22.40;100150.00;;;;5031132;28;20244;-68
2023/07/24 15:14:56;;;;;;;0.40;0.40;;;20.20;99.90;22.70;100145.00;;;;5019708;28;20203;-68
2023/07/24 15:17:35;;;;;;;0.40;0.40;;;20.10;99.90;23.10;100140.00;;;;5028103;28;20182;-67
2023/07/24 15:20:12;;;;;;;0.40;0.40;;;20.30;99.90;23.30;100146.00;;;;5034384;28;20201;-68
2023/07/24 15:22:45;;;;;;;0.85;0.85;;;20.50;99.90;22.60;100158.00;;;;5036283;28;20186;-68
2023/07/24 15:25:20;;;;;;;4.68;1.58;;;20.50;99.90;23.30;100170.00;;;;5040397;28;20273;-67
2023/07/24 15:27:54;;;;;;;0.95;0.95;;;20.60;99.90;23.50;100159.00;;;;5034406;28;20637;-67
2023/07/24 15:30:28;;;;;;;1.48;1.40;;;20.80;99.90;23.60;100151.00;;;;5038291;28;20195;-67
2023/07/24 15:33:05;;;;;;;0.73;0.73;;;21.00;99.90;23.10;100131.00;;;;5034002;28;20211;-67
2023/07/24 15:35:41;;;;;;;1.25;1.25;;;20.90;99.90;23.10;100164.00;;;;5036203;28;20187;-68
2023/07/24 15:38:13;;;;;;;0.40;0.40;;;20.90;99.90;23.00;100155.00;;;;5035391;28;20217;-67
2023/07/24 15:40:49;;;;;;;0.75;0.75;;;20.90;99.90;22.40;100167.00;;;;4155826;28;10001054;-68
2023/07/24 15:43:24;;;;;;;0.30;0.30;;;20.70;99.90;23.00;100171.00;;;;5025471;28;20191;-67
2023/07/24 15:45:58;;;;;;;0.40;0.40;;;20.70;99.90;23.30;100178.00;;;;5029205;28;20269;-67
2023/07/24 15:48:24;;;;;;;0.47;0.47;;;20.80;99.90;22.50;100160.00;;;;5022318;28;20179;-68
2023/07/24 15:50:57;;;;;;;0.75;0.75;;;20.70;99.90;22.70;100193.00;;;;5027866;28;20211;-67
2023/07/24 15:53:26;;;;;;;0.30;0.30;;;20.50;99.90;22.50;100187.00;;;;4150353;28;10000747;-68
2023/07/24 15:55:52;;;;;;;0.30;0.30;;;20.50;99.90;23.00;100195.00;;;;5025608;28;20265;-68
2023/07/24 15:58:26;;;;;;;0.30;0.30;;;20.60;99.90;23.30;100206.00;;;;5047551;28;20219;-68
2023/07/24 16:01:00;;;;;;;0.22;0.22;;;20.70;99.90;22.80;100206.00;;;;5043616;28;20178;-68
2023/07/24 16:03:38;;;;;;;0.50;0.50;;;20.50;99.90;22.60;100217.00;;;;5047587;28;20194;-68
2023/07/24 16:06:10;;;;;;;0.45;0.45;;;20.50;99.90;22.50;100210.00;;;;5027507;28;20185;-67
2023/07/24 16:08:47;;;;;;;0.28;0.28;;;20.20;99.90;22.60;100216.00;;;;5026088;28;20179;-67
2023/07/24 16:11:23;;;;;;;1.15;1.15;;;20.20;99.90;23.20;100230.00;;;;5038863;28;20174;-68
2023/07/24 16:13:49;;;;;;;0.32;0.32;;;20.50;99.90;23.30;100240.00;;;;5071318;28;20182;-67
2023/07/24 16:16:46;;;;;;;0.30;0.30;;;20.60;99.90;23.50;100253.00;;;;5029709;28;20270;-66
2023/07/24 16:19:38;;;;;;;0.30;0.30;;;20.90;99.90;23.70;100248.00;;;;5027367;28;20191;-66
2023/07/24 16:22:16;;;;;;;0.30;0.30;;;21.00;99.90;24.10;100263.00;;;;5025463;28;20684;-67
2023/07/24 16:24:44;;;;;;;0.30;0.30;;;21.20;99.90;23.50;100266.00;;;;5037504;28;20190;-67
2023/07/24 16:27:13;;;;;;;0.30;0.30;;;21.10;99.90;23.10;100258.00;;;;5046792;28;20186;-67
2023/07/24 16:29:47;;;;;;;0.30;0.30;;;20.90;99.90;22.80;100253.00;;;;5039622;28;20620;-67
2023/07/24 16:32:30;;;;;;;0.30;0.30;;;20.70;99.90;22.40;100250.00;;;;5045260;28;20217;-67
2023/07/24 16:35:09;;;;;;;0.63;0.63;;;20.40;99.90;21.70;100248.00;;;;5024573;28;20635;-67
2023/07/24 16:37:44;;;;;;;0.30;0.30;;;20.10;99.90;21.80;100252.00;;;;5016997;28;20178;-66
2023/07/24 16:40:20;;;;;;;0.30;0.30;;;19.90;99.90;21.80;100267.00;;;;5039609;28;20182;-67
2023/07/24 16:42:57;;;;;;;0.20;0.20;;;19.80;99.90;22.20;100270.00;;;;5050262;28;20191;-67
2023/07/24 16:45:28;;;;;;;0.20;0.20;;;19.80;99.90;21.70;100225.00;;;;5037351;28;20255;-67
2023/07/24 16:47:59;;;;;;;0.93;0.73;;;19.80;99.90;21.20;100279.00;;;;5040117;28;20223;-67
2023/07/24 16:50:31;;;;;;;0.20;0.20;;;19.60;99.90;21.30;100274.00;;;;5033687;28;20248;-67
2023/07/24 16:53:06;;;;;;;0.28;0.28;;;19.40;99.90;22.10;100290.00;;;;5063153;28;20198;-67
2023/07/24 16:55:40;;;;;;;0.22;0.22;;;19.50;99.90;22.30;100294.00;;;;5025605;28;20633;-67
2023/07/24 16:58:14;;;;;;;0.20;0.20;;;19.70;99.90;22.00;100296.00;;;;5059952;28;20206;-67
2023/07/24 17:00:40;;;;;;;0.40;0.40;;;19.80;99.90;22.60;100301.00;;;;5037455;28;20186;-66
2023/07/24 17:03:16;;;;;;;0.20;0.20;;;20.00;99.90;21.80;100296.00;;;;5036591;28;20602;-67
2023/07/24 17:05:45;;;;;;;0.10;0.10;;;19.90;99.90;22.10;100291.00;;;;5028313;28;20978;-66
2023/07/24 17:08:34;;;;;;;0.10;0.10;;;19.80;99.90;21.60;100308.00;;;;5024911;28;20178;-67
2023/07/24 17:11:11;;;;;;;0.15;0.15;;;19.70;99.90;21.10;100285.00;;;;5021976;28;20680;-66
2023/07/24 17:13:47;;;;;;;0.23;0.23;;;19.30;99.90;21.20;100301.00;;;;5022669;28;20190;-66
2023/07/24 17:16:18;;;;;;;0.10;0.10;;;19.30;99.90;21.50;100300.00;;;;5039870;28;20176;-67
2023/07/24 17:18:44;;;;;;;0.60;0.30;;;19.20;99.90;20.90;100301.00;;;;5025030;28;20730;-67
2023/07/24 17:21:16;;;;;;;0.17;0.17;;;19.10;99.90;21.00;100296.00;;;;5031665;28;20189;-67
2023/07/24 17:23:50;;;;;;;0.10;0.10;;;19.10;99.90;21.10;100308.00;;;;5016182;28;20190;-67
2023/07/24 17:26:19;;;;;;;0.33;0.33;;;19.00;99.90;21.60;100293.00;;;;5052276;28;20188;-67
2023/07/24 17:28:56;;;;;;;0.10;0.10;;;19.20;99.90;21.10;100322.00;;;;5034082;28;20206;-67
2023/07/24 17:31:30;;;;;;;0.10;0.10;;;19.10;99.90;21.60;100311.00;;;;5040254;28;20204;-67
2023/07/24 17:34:05;;;;;;;0.10;0.10;;;19.20;99.90;21.80;100336.00;;;;5072995;28;20285;-67
2023/07/24 17:36:50;;;;;;;1.10;0.63;;;19.30;99.90;21.50;100345.00;;;;5024715;28;20197;-66
2023/07/24 17:39:16;;;;;;;0.20;0.20;;;19.40;99.90;21.80;100344.00;;;;5038415;28;20173;-67
2023/07/24 17:41:42;;;;;;;0.10;0.10;;;19.30;99.90;21.60;100360.00;;;;5038645;28;20599;-67
2023/07/24 17:44:08;;;;;;;0.20;0.20;;;19.30;99.90;21.80;100355.00;;;;5043601;28;20273;-67
2023/07/24 17:46:39;;;;;;;0.10;0.10;;;19.40;99.90;21.60;100356.00;;;;5045347;28;20262;-67
2023/07/24 17:49:10;;;;;;;0.10;0.10;;;19.30;99.90;21.90;100368.00;;;;5041968;28;20189;-67
2023/07/24 17:51:41;;;;;;;0.10;0.10;;;19.30;99.90;21.80;100371.00;;;;5067095;28;20205;-67
2023/07/24 17:54:16;;;;;;;0.37;0.37;;;19.30;99.90;22.10;100366.00;;;;5047335;28;20279;-67
2023/07/24 17:56:50;;;;;;;0.30;0.30;;;19.40;99.90;21.20;100364.00;;;;5045304;28;20210;-70
2023/07/24 17:59:21;;;;;;;0.23;0.23;;;19.20;99.90;21.30;100370.00;;;;5040136;28;20639;-66
2023/07/24 18:01:56;;;;;;;0.10;0.10;;;19.10;99.90;21.70;100363.00;;;;5023884;28;20594;-65
2023/07/24 18:04:37;;;;;;;0.10;0.10;;;19.20;99.90;21.90;100346.00;;;;5044139;28;20197;-65
2023/07/24 18:07:08;;;;;;;0.10;0.10;;;19.30;99.90;21.80;100380.00;;;;5038693;28;20190;-65
2023/07/24 18:09:42;;;;;;;0.10;0.10;;;19.40;99.90;21.80;100386.00;;;;5037696;28;20662;-65
2023/07/24 18:12:13;;;;;;;0.20;0.20;;;19.40;99.90;21.80;100388.00;;;;5034673;28;20622;-65
2023/07/24 18:14:50;;;;;;;0.20;0.20;;;19.30;99.90;21.80;100393.00;;;;5031283;28;20651;-65
2023/07/24 18:17:33;;;;;;;0.10;0.10;;;19.20;99.90;22.00;100362.00;;;;5032474;28;20184;-65
2023/07/24 18:19:59;;;;;;;0.10;0.10;;;19.30;99.90;22.10;100403.00;;;;5030849;28;20196;-64
2023/07/24 18:22:36;;;;;;;0.10;0.10;;;19.40;99.90;22.20;100386.00;;;;5046561;28;20192;-64
2023/07/24 18:25:08;;;;;;;0.20;0.20;;;19.40;99.90;22.70;100397.00;;;;5041779;28;20639;-64
2023/07/24 18:27:42;;;;;;;0.10;0.10;;;19.60;99.90;22.50;100400.00;;;;5022071;28;20187;-65
2023/07/24 18:30:16;;;;;;;0.10;0.10;;;19.60;99.90;22.50;100393.00;;;;5037906;28;20654;-64
2023/07/24 18:32:50;;;;;;;0.20;0.20;;;19.60;99.90;22.40;100403.00;;;;5040433;28;20576;-64
2023/07/24 18:35:27;;;;;;;0.20;0.20;;;19.60;99.90;22.70;100405.00;;;;5031676;28;20186;-65
2023/07/24 18:38:01;;;;;;;0.20;0.20;;;19.70;99.90;21.60;100405.00;;;;5028421;28;20189;-64